Pagrindinis puslapis
METAR-TAF:

METAR-TAF

Oro uostai :

Marianhamina, Suomija

platuma: 60-07N, ilguma: 019-54E, Aukštis: 6 m

Dabartinis oras

Ataskaita buvo paskelbta 35 minutes, ne 00:50 UTC
Vėjas 2 kt nuo kintamojo kryptimis
Temperatūra 7°C
Drėgmė 100%
Slėgis 1000 hPa
Matomumas 10 km arba daugiau
nėra debesų žemiau 1500 m ir nėra kamuolinių lietaus debesų

METAR: EFMA 050050Z AUTO VRB02KT CAVOK 07/07 Q1000

Laikas: 04:25 (01:25 UTC)

Prognozė

Ataskaita buvo paskelbta 1 valandą ir 55 minutes, ne 23:30 UTC
Prognozė galioja nuo 05 metu 00 UTC su 05 metu 09 UTC
Vėjas 1 kt nuo kintamojo kryptimis
Matomumas 10 km arba daugiau
nėra debesų žemiau 1500 m ir nėra kamuolinių lietaus debesų
Tapsmas
nuo 05 metu 07 UTC su 05 metu 09 UTC
Vėjas 10 kt iš Pietų

TAF: EFMA 042330Z 0500/0509 VRB01KT CAVOK BECMG 0507/0509 19010KT

Orai ataskaitas ir orų prognozės (METAR, TAF).

turimą stotys yra geltonos ir raudonos taškus žemėlapyje.

Perkelti pele per norėdami pamatyti stoties vardą.

Tada spustelėkite, norėdami matyti oro stebėjimo ir prognozės.

Norėdami pakeisti žemėlapį: spustelėkite ant žalios mygtukų su juodo kryžiaus žemyn,; žalią mygtuką su brūkšneliu, jei norite nutolinti; arba žalių rodyklių gretimoms žemėlapius.


METAR-TAF: